Time;durP1;ratioP1;P1;durP2;ratioP2;P2;SDS_P1;SDS_P2;PMS_P1;PMS_P2;Temp;Humidity;BMP_temperature;BMP_pressure;BME280_temperature;BME280_humidity;BME280_pressure;Samples;Min_cycle;Max_cycle;Signal;HPM_P1;HPM_P2
2022/08/08 00:02:24;;;;;;;7.47;1.50;;;41.40;40.10;;;;;;4939665;28;20034;-58
2022/08/08 00:05:06;;;;;;;8.07;1.55;;;41.50;39.60;;;;;;4947068;28;20481;-60
2022/08/08 00:07:56;;;;;;;3.83;1.05;;;40.90;55.90;;;;;;4953530;28;20030;-61
2022/08/08 00:10:22;;;;;;;9.52;1.73;;;41.10;61.80;;;;;;4936203;28;20488;-61
2022/08/08 00:13:10;;;;;;;6.90;1.40;;;41.80;39.80;;;;;;4970479;28;20509;-54
2022/08/08 00:15:49;;;;;;;4.72;1.50;;;42.00;72.60;;;;;;4951778;28;20047;-60
2022/08/08 00:18:58;;;;;;;6.97;1.83;;;40.90;70.70;;;;;;4968992;28;20042;-55
2022/08/08 00:21:44;;;;;;;6.90;1.25;;;40.90;72.50;;;;;;4952105;28;20031;-59
2022/08/08 00:24:19;;;;;;;7.18;1.80;;;40.90;53.80;;;;;;4951543;28;20054;-57
2022/08/08 00:26:54;;;;;;;5.70;1.30;;;41.00;40.40;;;;;;4952134;28;20392;-57
2022/08/08 00:29:52;;;;;;;7.00;1.40;;;40.30;72.50;;;;;;4937297;28;20023;-57
2022/08/08 00:32:34;;;;;;;7.72;1.52;;;40.90;40.00;;;;;;4968460;28;20053;-58
2022/08/08 00:35:39;;;;;;;11.07;1.65;;;40.80;72.80;;;;;;4952135;28;20101;-57
2022/08/08 00:38:11;;;;;;;4.05;1.23;;;40.60;42.70;;;;;;4936056;28;20038;-58
2022/08/08 00:41:00;;;;;;;6.50;1.13;;;40.00;67.60;;;;;;4969158;28;20022;-55
2022/08/08 00:43:42;;;;;;;2.80;1.13;;;40.70;73.80;;;;;;4917945;28;20497;-57
2022/08/08 00:46:28;;;;;;;6.95;1.63;;;40.30;74.30;;;;;;4952011;28;20039;-56
2022/08/08 00:49:23;;;;;;;7.22;1.70;;;40.00;63.80;;;;;;4952213;28;20177;-56
2022/08/08 00:52:22;;;;;;;9.65;2.10;;;40.80;68.20;;;;;;4969540;28;20038;-56
2022/08/08 00:54:54;;;;;;;9.48;1.52;;;39.80;77.60;;;;;;4948641;28;20031;-57
2022/08/08 00:58:11;;;;;;;7.53;1.27;;;40.30;41.90;;;;;;4969060;28;20019;-58
2022/08/08 01:01:02;;;;;;;3.92;1.10;;;39.60;77.60;;;;;;4969763;28;20408;-58
2022/08/08 01:03:50;;;;;;;8.32;1.45;;;39.90;42.80;;;;;;4959455;28;20169;-60
2022/08/08 01:06:39;;;;;;;7.63;1.83;;;39.90;42.30;;;;;;4969832;28;20035;-58
2022/08/08 01:09:26;;;;;;;6.13;1.40;;;42.90;44.50;;;;;;4966060;28;20141;-60
2022/08/08 01:11:53;;;;;;;11.00;1.48;;;;;;;;;;4970396;28;20485;-58
2022/08/08 01:14:56;;;;;;;5.72;1.10;;;39.60;42.40;;;;;;4968026;28;20396;-58
2022/08/08 01:17:52;;;;;;;6.22;1.30;;;39.60;43.10;;;;;;4955242;28;20027;-58
2022/08/08 01:20:27;;;;;;;12.13;1.80;;;39.70;72.20;;;;;;4935738;28;20039;-57
2022/08/08 01:23:39;;;;;;;6.05;1.10;;;39.40;70.10;;;;;;4973419;28;20023;-56
2022/08/08 01:26:27;;;;;;;4.93;1.17;;;39.80;55.30;;;;;;4955486;28;20523;-58
2022/08/08 01:29:02;;;;;;;8.20;1.60;;;39.30;42.70;;;;;;4954364;28;20452;-58
2022/08/08 01:32:06;;;;;;;5.90;1.30;;;39.70;77.60;;;;;;4956900;28;20034;-57
2022/08/08 01:34:50;;;;;;;7.13;1.42;;;39.10;43.20;;;;;;4958172;28;20120;-59
2022/08/08 01:37:53;;;;;;;8.73;1.85;;;39.00;60.80;;;;;;4974937;28;20019;-57
2022/08/08 01:40:41;;;;;;;7.90;1.38;;;38.80;75.50;;;;;;4972480;28;20026;-59
2022/08/08 01:43:16;;;;;;;8.07;1.50;;;39.30;57.30;;;;;;4957223;28;20023;-55
2022/08/08 01:46:10;;;;;;;5.13;1.25;;;39.30;74.60;;;;;;4954680;28;20407;-57
2022/08/08 01:48:37;;;;;;;5.50;1.60;;;38.70;71.30;;;;;;4945183;28;20401;-56
2022/08/08 01:51:34;;;;;;;11.07;1.48;;;38.80;43.60;;;;;;4957445;28;20107;-55
2022/08/08 01:54:31;;;;;;;4.40;1.00;;;38.80;69.70;;;;;;4952069;28;20125;-56
2022/08/08 01:57:17;;;;;;;3.00;0.95;;;38.50;71.30;;;;;;4970370;28;20027;-60
2022/08/08 02:00:11;;;;;;;7.55;1.80;;;38.20;43.90;;;;;;4954290;28;20871;-58
2022/08/08 02:02:56;;;;;;;7.93;1.85;;;38.00;78.40;;;;;;4954445;28;20089;-57
2022/08/08 02:05:44;;;;;;;9.40;1.80;;;38.10;44.40;;;;;;4972571;28;20062;-58
2022/08/08 02:08:39;;;;;;;12.98;1.88;;;38.20;73.70;;;;;;4955326;28;20137;-57
2022/08/08 02:11:06;;;;;;;12.57;1.88;;;;;;;;;;4955055;28;20487;-56
2022/08/08 02:13:39;;;;;;;13.63;1.67;;;37.80;46.10;;;;;;4969392;28;20547;-60
2022/08/08 02:16:24;;;;;;;12.23;1.67;;;37.80;46.80;;;;;;4948659;28;20038;-56
2022/08/08 02:19:06;;;;;;;11.13;1.50;;;37.90;87.20;;;;;;4966574;28;20116;-58
2022/08/08 02:25:03;;;;;;;21.08;1.92;;;38.00;87.50;;;;;;4906427;29;20060;-60
2022/08/08 02:27:45;;;;;;;15.43;2.13;;;36.40;85.60;;;;;;4905440;29;20032;-57
2022/08/08 02:30:21;;;;;;;12.98;1.63;;;36.60;90.70;;;;;;4895023;29;20064;-55
2022/08/08 02:33:04;;;;;;;;;;;36.80;51.40;;;;;;4892014;29;20499;-55
2022/08/08 02:35:42;;;;;;;10.48;1.80;;;36.80;55.10;;;;;;4906360;29;19914;-60
2022/08/08 02:38:29;;;;;;;11.77;2.47;;;36.60;51.40;;;;;;4891030;29;20186;-57
2022/08/08 02:41:23;;;;;;;10.40;2.05;;;36.60;90.40;;;;;;4891370;29;20476;-55
2022/08/08 02:44:15;;;;;;;16.67;1.55;;;36.50;52.40;;;;;;4890438;29;20028;-54
2022/08/08 02:47:00;;;;;;;13.93;1.77;;;36.30;88.90;;;;;;4890859;29;20055;-57
2022/08/08 02:49:57;;;;;;;14.02;1.90;;;36.20;53.10;;;;;;4907775;29;20447;-55
2022/08/08 02:52:48;;;;;;;9.75;2.13;;;35.80;72.30;;;;;;4905391;29;20039;-56
2022/08/08 02:55:14;;;;;;;12.65;2.83;;;;;;;;;;4901006;29;20180;-55
2022/08/08 02:57:46;;;;;;;16.55;2.45;;;35.90;54.40;;;;;;4902694;29;20475;-55
2022/08/08 03:00:40;;;;;;;14.20;2.17;;;35.80;54.70;;;;;;4895762;28;20035;-59
2022/08/08 03:03:25;;;;;;;11.43;2.17;;;35.80;59.40;;;;;;4949068;28;20110;-56
2022/08/08 03:06:27;;;;;;;14.85;2.33;;;36.00;90.60;;;;;;4951116;28;20038;-56
2022/08/08 03:09:46;;;;;;;16.75;2.50;;;35.60;55.40;;;;;;4967256;28;20039;-55
2022/08/08 03:12:53;;;;;;;17.60;2.38;;;35.50;59.10;;;;;;4907377;29;20020;-54
2022/08/08 03:15:51;;;;;;;13.35;2.20;;;35.80;88.10;;;;;;4897309;29;20048;-54
2022/08/08 03:18:30;;;;;;;14.98;2.42;;;35.30;57.00;;;;;;4906000;29;20024;-53
2022/08/08 03:20:56;;;;;;;17.77;2.88;;;35.30;94.30;;;;;;4890061;29;20036;-56
2022/08/08 03:23:23;;;;;;;18.08;2.67;;;;;;;;;;4907847;29;20506;-57
2022/08/08 03:25:50;;;;;;;28.52;5.50;;;35.00;57.80;;;;;;4906782;29;20029;-56
2022/08/08 03:28:26;;;;;;;25.73;6.95;;;34.90;58.00;;;;;;4906843;29;20039;-59
2022/08/08 03:30:53;;;;;;;28.42;5.35;;;35.20;94.50;;;;;;4908352;29;20043;-56
2022/08/08 03:33:19;;;;;;;21.70;4.50;;;34.80;58.40;;;;;;4906243;29;20415;-59
2022/08/08 03:35:50;;;;;;;26.95;3.45;;;35.30;93.00;;;;;;4906930;29;20463;-56
2022/08/08 03:38:20;;;;;;;27.02;2.88;;;34.70;58.80;;;;;;4907438;29;20047;-53
2022/08/08 03:40:54;;;;;;;26.10;3.20;;;34.70;84.90;;;;;;4905563;29;20056;-60
2022/08/08 03:43:20;;;;;;;12.82;2.78;;;34.70;68.60;;;;;;4937449;28;20043;-57
2022/08/08 03:45:47;;;;;;;18.20;2.50;;;34.10;94.30;;;;;;4948952;28;20534;-56
2022/08/08 03:48:13;;;;;;;21.77;3.20;;;34.30;93.80;;;;;;4947919;28;20034;-55
2022/08/08 03:50:47;;;;;;;19.40;2.53;;;34.40;62.00;;;;;;4966299;28;20073;-56
2022/08/08 03:53:16;;;;;;;13.93;1.83;;;34.40;92.70;;;;;;4964813;28;20789;-56
2022/08/08 03:55:47;;;;;;;15.32;2.13;;;34.30;92.70;;;;;;4949316;28;20477;-54
2022/08/08 03:58:24;;;;;;;26.00;3.22;;;34.30;91.00;;;;;;4940719;28;20417;-58
2022/08/08 04:00:55;;;;;;;16.75;4.03;;;34.20;91.10;;;;;;4948453;28;20595;-56
2022/08/08 04:03:23;;;;;;;16.02;4.25;;;34.00;92.80;;;;;;4964887;28;20061;-61
2022/08/08 04:05:50;;;;;;;20.33;3.70;;;34.10;91.20;;;;;;4951147;28;20054;-59
2022/08/08 04:08:19;;;;;;;24.17;4.45;;;34.10;59.50;;;;;;4950556;28;20027;-56
2022/08/08 04:10:51;;;;;;;18.98;4.18;;;33.90;92.20;;;;;;4948131;28;20473;-54
2022/08/08 04:13:21;;;;;;;21.77;3.20;;;34.10;93.40;;;;;;4946873;28;20053;-56
2022/08/08 04:15:47;;;;;;;17.45;3.88;;;34.20;94.60;;;;;;4952171;28;20027;-56
2022/08/08 04:18:14;;;;;;;17.73;3.15;;;33.70;95.30;;;;;;4951988;28;20026;-54
2022/08/08 04:20:40;;;;;;;16.98;4.05;;;33.70;95.60;;;;;;4952359;28;20034;-56
2022/08/08 04:23:07;;;;;;;19.02;4.72;;;33.80;62.10;;;;;;4952361;28;20915;-50
2022/08/08 04:25:34;;;;;;;19.73;4.97;;;;;;;;;;4969036;28;20077;-57
2022/08/08 04:28:00;;;;;;;27.10;7.30;;;33.70;94.30;;;;;;4968040;28;20023;-60
2022/08/08 04:30:27;;;;;;;29.27;7.97;;;33.60;97.50;;;;;;4952893;28;20027;-55
2022/08/08 04:32:54;;;;;;;23.17;7.88;;;31.30;62.70;;;;;;4952331;28;20451;-59
2022/08/08 04:35:21;;;;;;;25.08;8.48;;;33.60;98.30;;;;;;4948741;28;20055;-55
2022/08/08 04:37:47;;;;;;;28.10;7.22;;;32.20;64.40;;;;;;4970269;28;20053;-55
2022/08/08 04:40:13;;;;;;;25.20;8.15;;;33.50;98.10;;;;;;4968708;28;20026;-56
2022/08/08 04:42:40;;;;;;;29.85;7.85;;;;;;;;;;4950615;28;20054;-60
2022/08/08 04:45:07;;;;;;;20.33;6.57;;;33.30;66.00;;;;;;4969286;28;20069;-54
2022/08/08 04:47:33;;;;;;;34.38;8.23;;;33.30;96.70;;;;;;4936126;28;20030;-56
2022/08/08 04:50:00;;;;;;;19.02;8.30;;;32.90;98.40;;;;;;4937337;28;20033;-55
2022/08/08 04:52:26;;;;;;;29.33;7.75;;;33.20;96.40;;;;;;4940141;28;20030;-54
2022/08/08 04:54:52;;;;;;;25.25;8.38;;;33.20;96.90;;;;;;4955558;28;20053;-57
2022/08/08 04:57:19;;;;;;;23.08;7.30;;;;;;;;;;4971614;28;20031;-60
2022/08/08 04:59:45;;;;;;;17.98;6.95;;;32.90;97.30;;;;;;4954937;28;20093;-54
2022/08/08 05:02:12;;;;;;;21.75;6.90;;;33.10;93.70;;;;;;4955799;28;20027;-58
2022/08/08 05:04:38;;;;;;;24.63;7.72;;;33.10;66.20;;;;;;4955487;28;20082;-56
2022/08/08 05:07:05;;;;;;;28.70;9.23;;;33.30;97.00;;;;;;4956688;28;20022;-52
2022/08/08 05:09:31;;;;;;;30.65;9.32;;;33.00;97.40;;;;;;4956541;28;20390;-60
2022/08/08 05:11:58;;;;;;;18.33;6.15;;;33.00;97.60;;;;;;4955579;28;20081;-59
2022/08/08 05:14:24;;;;;;;24.05;6.00;;;32.90;96.60;;;;;;4955891;28;20045;-55
2022/08/08 05:16:50;;;;;;;19.58;4.88;;;32.90;95.60;;;;;;4955611;28;20023;-57
2022/08/08 05:19:17;;;;;;;15.07;3.60;;;33.00;96.30;;;;;;4955814;28;20113;-56
2022/08/08 05:21:43;;;;;;;21.63;3.60;;;32.80;68.70;;;;;;4974306;28;20528;-56
2022/08/08 05:24:10;;;;;;;14.75;3.53;;;32.70;96.40;;;;;;4955668;28;20034;-60
2022/08/08 05:26:40;;;;;;;15.23;3.75;;;32.80;97.20;;;;;;4939163;28;20031;-56
2022/08/08 05:29:07;;;;;;;16.63;3.40;;;32.80;96.20;;;;;;4955094;28;20081;-54
2022/08/08 05:31:34;;;;;;;12.98;3.03;;;32.70;69.70;;;;;;4955595;28;20097;-55
2022/08/08 05:34:04;;;;;;;13.98;3.13;;;32.30;97.40;;;;;;4958624;28;20042;-55
2022/08/08 05:36:34;;;;;;;14.68;3.08;;;32.50;97.30;;;;;;4939525;28;20126;-56
2022/08/08 05:39:04;;;;;;;22.48;3.13;;;32.50;70.80;;;;;;4940444;28;20515;-55
2022/08/08 05:41:35;;;;;;;14.63;3.70;;;32.60;71.50;;;;;;4939390;28;20023;-57
2022/08/08 05:44:19;;;;;;;12.25;3.10;;;32.60;72.00;;;;;;4954606;28;20397;-58
2022/08/08 05:46:47;;;;;;;16.30;2.90;;;32.50;97.30;;;;;;4937521;28;20067;-60
2022/08/08 05:49:16;;;;;;;19.85;3.83;;;32.70;97.60;;;;;;4938600;28;20033;-55
2022/08/08 05:51:44;;;;;;;16.15;3.78;;;32.50;96.80;;;;;;4957467;28;20034;-56
2022/08/08 05:54:10;;;;;;;16.80;3.35;;;32.40;76.50;;;;;;4953367;28;20030;-58
2022/08/08 05:56:39;;;;;;;15.57;3.08;;;32.10;97.00;;;;;;4956797;28;20406;-56
2022/08/08 05:59:12;;;;;;;13.05;3.33;;;32.30;97.50;;;;;;4950902;28;20038;-56
2022/08/08 06:01:41;;;;;;;22.90;4.68;;;32.30;79.10;;;;;;4971708;28;20030;-55
2022/08/08 06:04:11;;;;;;;16.23;4.47;;;32.30;71.90;;;;;;4938810;28;20038;-57
2022/08/08 06:06:41;;;;;;;18.58;4.28;;;32.30;96.80;;;;;;4953977;28;20162;-56
2022/08/08 06:09:09;;;;;;;16.95;4.88;;;32.20;72.70;;;;;;4954767;28;20033;-57
2022/08/08 06:11:35;;;;;;;8.63;3.83;;;32.30;96.40;;;;;;4954380;28;20031;-56
2022/08/08 06:14:06;;;;;;;15.05;3.33;;;32.10;95.30;;;;;;4973014;28;20100;-55
2022/08/08 06:16:36;;;;;;;10.57;2.60;;;32.10;73.50;;;;;;4954713;28;20037;-56
2022/08/08 06:19:03;;;;;;;10.00;1.95;;;32.10;93.00;;;;;;4954900;28;20114;-61
2022/08/08 06:21:30;;;;;;;8.52;2.17;;;32.10;73.40;;;;;;4938871;28;20422;-57
2022/08/08 06:23:56;;;;;;;6.68;1.83;;;;;;;;;;4954432;28;20052;-56
2022/08/08 06:26:31;;;;;;;7.18;1.92;;;32.30;96.20;;;;;;4971042;28;20048;-58
2022/08/08 06:29:08;;;;;;;6.57;1.77;;;32.20;96.20;;;;;;4938800;28;20158;-60
2022/08/08 06:31:37;;;;;;;9.27;1.60;;;32.10;71.20;;;;;;4952354;28;20541;-56
2022/08/08 06:34:13;;;;;;;7.30;1.90;;;32.10;70.70;;;;;;4953640;28;20063;-59
2022/08/08 06:36:42;;;;;;;5.90;1.80;;;32.00;94.70;;;;;;4953573;28;20040;-56
2022/08/08 06:39:13;;;;;;;11.20;1.95;;;32.10;70.60;;;;;;4971404;28;20208;-57
2022/08/08 06:41:48;;;;;;;9.82;1.85;;;31.90;92.30;;;;;;4971288;28;20041;-62
2022/08/08 06:44:17;;;;;;;8.10;1.75;;;32.10;70.10;;;;;;4953430;28;20130;-57
2022/08/08 06:46:44;;;;;;;6.70;1.73;;;32.10;80.00;;;;;;4954190;28;20583;-55
2022/08/08 06:49:11;;;;;;;3.55;1.17;;;32.00;91.40;;;;;;4970757;28;20138;-56
2022/08/08 06:51:38;;;;;;;5.13;1.45;;;32.30;88.00;;;;;;4942096;28;20091;-54
2022/08/08 06:54:05;;;;;;;7.60;1.85;;;31.60;92.40;;;;;;4935875;28;20156;-53
2022/08/08 06:56:32;;;;;;;5.88;1.50;;;32.20;93.00;;;;;;4953992;28;20096;-55
2022/08/08 06:58:58;;;;;;;7.10;1.70;;;31.90;69.80;;;;;;4969791;28;20534;-56
2022/08/08 07:01:29;;;;;;;7.15;1.50;;;32.00;93.70;;;;;;4969389;28;20182;-56
2022/08/08 07:04:03;;;;;;;6.90;1.80;;;31.90;68.60;;;;;;4952947;28;20050;-56
2022/08/08 07:06:33;;;;;;;7.43;1.40;;;32.10;91.00;;;;;;4952873;28;20065;-55
2022/08/08 07:09:15;;;;;;;5.00;1.45;;;32.00;94.50;;;;;;4953964;28;20070;-58
2022/08/08 07:11:42;;;;;;;5.32;1.52;;;31.80;88.40;;;;;;4953276;28;20030;-60
2022/08/08 07:14:16;;;;;;;5.40;1.48;;;31.80;95.00;;;;;;4953495;28;20078;-57
2022/08/08 07:17:05;;;;;;;4.88;1.38;;;31.90;67.90;;;;;;4938002;28;20496;-57
2022/08/08 07:19:50;;;;;;;5.80;1.50;;;31.90;93.10;;;;;;4953423;28;20419;-55
2022/08/08 07:22:29;;;;;;;5.60;1.25;;;32.20;90.00;;;;;;4972278;28;20043;-54
2022/08/08 07:25:01;;;;;;;6.43;1.77;;;32.00;92.70;;;;;;4952377;28;20540;-57
2022/08/08 07:27:40;;;;;;;8.15;1.52;;;31.90;66.70;;;;;;4953409;28;20048;-56
2022/08/08 07:30:07;;;;;;;2.88;1.10;;;31.80;67.50;;;;;;4954385;28;20031;-58
2022/08/08 07:32:34;;;;;;;5.32;1.60;;;;;;;;;;4952533;28;20077;-57
2022/08/08 07:35:00;;;;;;;7.78;1.98;;;;;;;;;;4968529;28;20453;-57
2022/08/08 07:37:29;;;;;;;13.20;3.55;;;31.80;68.00;;;;;;4968929;28;20518;-60
2022/08/08 07:39:59;;;;;;;15.95;3.83;;;32.10;95.10;;;;;;4936210;28;20054;-56
2022/08/08 07:42:27;;;;;;;18.08;3.88;;;31.80;81.10;;;;;;4952802;28;20085;-58
2022/08/08 07:44:54;;;;;;;19.08;4.85;;;31.80;95.60;;;;;;4953183;28;20078;-55
2022/08/08 07:47:20;;;;;;;13.20;4.68;;;;;;;;;;4968548;28;20625;-57
2022/08/08 07:49:47;;;;;;;18.42;5.15;;;32.00;95.90;;;;;;4968398;28;20047;-59
2022/08/08 07:52:15;;;;;;;20.08;5.93;;;31.70;93.70;;;;;;4956634;28;20055;-59
2022/08/08 07:55:03;;;;;;;15.70;6.15;;;31.80;94.50;;;;;;4953101;28;20121;-55
2022/08/08 07:58:11;;;;;;;14.63;6.05;;;31.50;71.30;;;;;;4952907;28;20553;-57
2022/08/08 08:00:42;;;;;;;11.38;5.00;;;31.80;76.60;;;;;;4950502;28;20066;-60
2022/08/08 08:03:19;;;;;;;16.85;5.25;;;31.40;95.20;;;;;;4952206;28;20087;-55
2022/08/08 08:05:52;;;;;;;15.48;4.57;;;31.40;96.00;;;;;;4938147;28;20054;-59
2022/08/08 08:08:25;;;;;;;11.68;4.38;;;31.50;71.10;;;;;;4937623;28;20136;-55
2022/08/08 08:10:56;;;;;;;14.05;4.30;;;31.40;70.90;;;;;;4952441;28;20027;-58
2022/08/08 08:13:36;;;;;;;23.70;4.80;;;31.30;95.70;;;;;;4952396;28;20087;-56
2022/08/08 08:16:02;;;;;;;22.50;6.43;;;31.70;95.00;;;;;;4967182;28;20040;-60
2022/08/08 08:18:46;;;;;;;26.25;7.60;;;32.00;95.00;;;;;;4952867;28;20067;-58
2022/08/08 08:21:14;;;;;;;29.88;10.35;;;31.30;95.00;;;;;;4952370;28;20402;-57
2022/08/08 08:23:40;;;;;;;26.63;9.60;;;;;;;;;;4951274;28;20039;-58
2022/08/08 08:26:07;;;;;;;23.95;8.65;;;31.50;94.00;;;;;;4966702;28;20034;-56
2022/08/08 08:28:33;;;;;;;17.73;6.80;;;31.70;93.80;;;;;;4954928;28;20051;-56
2022/08/08 08:31:03;;;;;;;19.40;5.60;;;32.30;94.80;;;;;;4951956;28;20066;-55
2022/08/08 08:33:31;;;;;;;13.07;4.13;;;31.90;93.60;;;;;;4970265;28;20073;-56
2022/08/08 08:35:58;;;;;;;14.88;3.40;;;31.50;95.10;;;;;;4952720;28;20164;-58
2022/08/08 08:38:24;;;;;;;13.75;2.97;;;31.60;97.10;;;;;;4936797;28;20050;-58
2022/08/08 08:40:51;;;;;;;11.35;2.60;;;31.60;94.60;;;;;;4952354;28;20481;-60
2022/08/08 08:43:19;;;;;;;11.35;2.20;;;31.90;88.10;;;;;;4951837;28;20052;-57
2022/08/08 08:45:56;;;;;;;6.93;1.77;;;31.40;91.40;;;;;;4950458;28;20678;-57
2022/08/08 08:48:23;;;;;;;7.72;2.33;;;31.80;92.40;;;;;;4968915;28;20086;-57
2022/08/08 08:50:52;;;;;;;9.90;1.60;;;31.50;92.30;;;;;;4951844;28;21034;-57
2022/08/08 08:53:19;;;;;;;9.70;2.60;;;31.90;68.30;;;;;;4952396;28;20084;-56
2022/08/08 08:55:47;;;;;;;12.73;2.80;;;31.40;91.60;;;;;;4952188;28;20145;-55
2022/08/08 08:58:35;;;;;;;9.30;2.75;;;31.70;92.00;;;;;;4936167;28;20677;-60
2022/08/08 09:01:03;;;;;;;11.20;2.45;;;31.30;81.90;;;;;;4966732;28;20093;-58
2022/08/08 09:03:30;;;;;;;8.73;2.17;;;31.80;70.70;;;;;;4967099;28;20062;-61
2022/08/08 09:05:58;;;;;;;6.32;1.65;;;31.50;70.00;;;;;;4954162;28;20055;-57
2022/08/08 09:08:26;;;;;;;7.97;1.92;;;31.50;77.60;;;;;;4952376;28;20101;-55
2022/08/08 09:10:53;;;;;;;9.23;2.00;;;31.40;71.40;;;;;;4952558;28;20070;-56
2022/08/08 09:13:20;;;;;;;7.22;1.60;;;31.30;80.70;;;;;;4969100;28;20083;-56
2022/08/08 09:15:47;;;;;;;8.60;2.30;;;31.30;72.60;;;;;;4965811;28;20085;-58
2022/08/08 09:18:16;;;;;;;5.65;1.65;;;31.20;91.80;;;;;;4952508;28;20064;-52
2022/08/08 09:20:46;;;;;;;4.78;1.30;;;31.50;93.10;;;;;;4953057;28;20111;-59
2022/08/08 09:23:13;;;;;;;9.35;1.95;;;31.00;93.00;;;;;;4970508;28;20064;-57
2022/08/08 09:25:49;;;;;;;4.80;1.50;;;31.30;93.00;;;;;;4951430;28;20060;-58
2022/08/08 09:28:17;;;;;;;6.72;2.30;;;31.10;93.50;;;;;;4953829;28;20109;-61
2022/08/08 09:30:47;;;;;;;5.15;1.60;;;31.10;93.20;;;;;;4968199;28;20082;-55
2022/08/08 09:33:16;;;;;;;4.53;1.70;;;30.60;90.30;;;;;;4935907;28;20119;-58
2022/08/08 09:35:46;;;;;;;7.82;1.70;;;31.00;77.50;;;;;;4952285;28;20506;-60
2022/08/08 09:38:30;;;;;;;6.32;2.20;;;31.10;83.20;;;;;;4939645;28;20098;-60
2022/08/08 09:41:04;;;;;;;7.45;2.45;;;31.00;94.10;;;;;;4968816;28;20713;-57
2022/08/08 09:43:36;;;;;;;7.65;2.17;;;31.60;95.30;;;;;;4955242;28;20527;-58
2022/08/08 09:46:05;;;;;;;9.77;2.45;;;31.10;87.00;;;;;;4953899;28;20079;-60
2022/08/08 09:48:34;;;;;;;10.23;1.88;;;30.80;97.80;;;;;;4971602;28;20070;-62
2022/08/08 09:51:02;;;;;;;5.13;1.90;;;31.00;94.40;;;;;;4955298;28;20065;-59
2022/08/08 09:53:41;;;;;;;6.88;2.10;;;31.00;96.20;;;;;;4956114;28;20079;-57
2022/08/08 09:56:10;;;;;;;9.13;2.30;;;30.90;96.40;;;;;;4954268;28;20497;-54
2022/08/08 09:58:40;;;;;;;11.35;2.10;;;30.90;95.90;;;;;;4938651;28;20456;-59
2022/08/08 10:01:10;;;;;;;10.60;1.85;;;30.70;81.60;;;;;;4938366;28;20105;-58
2022/08/08 10:03:39;;;;;;;11.18;2.42;;;30.70;82.00;;;;;;4953988;28;20487;-60
2022/08/08 10:06:19;;;;;;;5.68;1.75;;;30.30;95.50;;;;;;4939610;28;20089;-57
2022/08/08 10:08:48;;;;;;;8.43;2.00;;;31.00;91.00;;;;;;4954412;28;20064;-58
2022/08/08 10:11:19;;;;;;;7.00;1.60;;;30.90;93.40;;;;;;4954945;28;20493;-59
2022/08/08 10:13:58;;;;;;;6.90;1.80;;;30.40;95.40;;;;;;4954352;28;20528;-60
2022/08/08 10:16:44;;;;;;;9.48;2.10;;;30.70;82.50;;;;;;4938290;28;20536;-56
2022/08/08 10:19:10;;;;;;;;;;;30.70;83.20;;;;;;4954340;28;20177;-58
2022/08/08 10:21:37;;;;;;;8.23;2.30;;;30.70;97.80;;;;;;4957754;28;20068;-55
2022/08/08 10:24:10;;;;;;;6.20;1.88;;;30.50;96.20;;;;;;4969506;28;20493;-56
2022/08/08 10:26:52;;;;;;;5.93;2.13;;;30.70;83.60;;;;;;4953594;28;20141;-59
2022/08/08 10:29:47;;;;;;;4.97;1.83;;;30.70;84.50;;;;;;4954117;28;20463;-58
2022/08/08 10:32:40;;;;;;;6.20;1.92;;;30.70;97.60;;;;;;4940719;28;20077;-57
2022/08/08 10:35:19;;;;;;;7.15;2.28;;;30.50;95.50;;;;;;4971454;28;20130;-55
2022/08/08 10:38:05;;;;;;;10.13;2.92;;;30.50;99.00;;;;;;4939552;28;20069;-61
2022/08/08 10:40:31;;;;;;;6.38;1.88;;;30.60;97.40;;;;;;4972170;28;20408;-56
2022/08/08 10:43:03;;;;;;;8.32;2.58;;;30.20;96.10;;;;;;4953162;28;20534;-56
2022/08/08 10:45:40;;;;;;;7.65;1.80;;;30.50;89.90;;;;;;4938608;28;20160;-61
2022/08/08 10:48:11;;;;;;;7.47;2.20;;;30.50;90.20;;;;;;4952392;28;20078;-57
2022/08/08 10:50:39;;;;;;;8.07;2.50;;;30.30;98.20;;;;;;4971223;28;20536;-57
2022/08/08 10:53:07;;;;;;;7.60;2.38;;;30.40;90.90;;;;;;4953974;28;20073;-55
2022/08/08 10:55:38;;;;;;;9.60;2.72;;;30.40;91.10;;;;;;4952752;28;20153;-57
2022/08/08 10:58:08;;;;;;;8.80;2.58;;;29.90;97.40;;;;;;4971826;28;20090;-55
2022/08/08 11:00:40;;;;;;;6.38;1.70;;;30.50;92.10;;;;;;4952495;28;20119;-56
2022/08/08 11:03:14;;;;;;;6.60;1.77;;;30.40;92.30;;;;;;4952929;28;20173;-59
2022/08/08 11:05:52;;;;;;;8.80;2.22;;;30.00;99.30;;;;;;4952662;28;20081;-57
2022/08/08 11:08:30;;;;;;;8.40;2.38;;;30.20;99.90;;;;;;4953203;28;20085;-56
2022/08/08 11:11:12;;;;;;;6.63;2.20;;;30.40;99.90;;;;;;4955054;28;20081;-54
2022/08/08 11:13:44;;;;;;;9.48;2.65;;;30.30;99.90;;;;;;4968620;28;20640;-57
2022/08/08 11:16:22;;;;;;;8.32;2.10;;;30.20;99.90;;;;;;4969342;28;20089;-56
2022/08/08 11:18:53;;;;;;;7.15;2.25;;;30.00;99.90;;;;;;4952962;28;20122;-55
2022/08/08 11:21:22;;;;;;;7.45;2.00;;;30.00;99.90;;;;;;4975525;28;20077;-58
2022/08/08 11:23:50;;;;;;;8.73;2.63;;;30.30;99.90;;;;;;4954837;28;20096;-55
2022/08/08 11:26:17;;;;;;;7.93;2.10;;;29.70;99.90;;;;;;4953345;28;20147;-56
2022/08/08 11:28:45;;;;;;;6.60;1.85;;;30.40;99.90;;;;;;4937422;28;20079;-55
2022/08/08 11:31:15;;;;;;;7.63;2.25;;;30.40;99.90;;;;;;4952794;28;20112;-56
2022/08/08 11:33:49;;;;;;;8.07;2.03;;;30.10;98.40;;;;;;4970627;28;20073;-61
2022/08/08 11:36:15;;;;;;;12.60;2.67;;;30.80;99.90;;;;;;4971129;28;20075;-55
2022/08/08 11:38:44;;;;;;;8.50;2.10;;;30.10;99.20;;;;;;4969468;28;20090;-55
2022/08/08 11:41:12;;;;;;;9.75;2.30;;;29.80;99.90;;;;;;4970447;28;20101;-62
2022/08/08 11:43:40;;;;;;;10.90;2.10;;;30.00;99.90;;;;;;4968778;28;20535;-57
2022/08/08 11:46:08;;;;;;;5.90;2.28;;;30.00;99.90;;;;;;4952467;28;20073;-57
2022/08/08 11:48:36;;;;;;;8.20;2.15;;;30.00;99.90;;;;;;4953688;28;20078;-57
2022/08/08 11:51:03;;;;;;;11.38;2.20;;;30.00;99.90;;;;;;4953297;28;20134;-59
2022/08/08 11:53:30;;;;;;;10.40;2.40;;;29.90;99.90;;;;;;4969989;28;20071;-55
2022/08/08 11:55:56;;;;;;;9.70;2.15;;;30.30;99.90;;;;;;4970048;28;20149;-57
2022/08/08 11:58:33;;;;;;;11.07;2.85;;;29.90;99.90;;;;;;4969602;28;20094;-56
2022/08/08 12:01:04;;;;;;;8.25;2.10;;;30.00;99.90;;;;;;4970399;28;20085;-55
2022/08/08 12:03:32;;;;;;;7.93;2.28;;;29.90;99.90;;;;;;4968010;28;20076;-57
2022/08/08 12:05:59;;;;;;;6.40;2.20;;;30.00;99.90;;;;;;4951061;28;20078;-56
2022/08/08 12:08:34;;;;;;;6.93;2.30;;;30.00;99.90;;;;;;4969330;28;20186;-60
2022/08/08 12:11:03;;;;;;;17.45;2.30;;;30.00;99.90;;;;;;4953213;28;20544;-56
2022/08/08 12:13:30;;;;;;;10.25;2.65;;;29.50;99.90;;;;;;4952814;28;20138;-56
2022/08/08 12:16:17;;;;;;;7.10;2.47;;;29.40;99.90;;;;;;4952628;28;20842;-59
2022/08/08 12:18:49;;;;;;;9.77;2.55;;;29.40;99.90;;;;;;4965425;28;20446;-60
2022/08/08 12:21:30;;;;;;;13.23;2.72;;;29.90;99.90;;;;;;4952646;28;20569;-55
2022/08/08 12:24:03;;;;;;;12.45;2.47;;;29.80;99.90;;;;;;4951811;28;20180;-57
2022/08/08 12:26:55;;;;;;;8.02;2.03;;;29.30;99.90;;;;;;4952679;28;20079;-60
2022/08/08 12:29:36;;;;;;;9.13;2.42;;;29.80;99.90;;;;;;4953725;28;20078;-60
2022/08/08 12:32:06;;;;;;;11.68;2.72;;;29.80;99.90;;;;;;4951340;28;20144;-57
2022/08/08 12:34:51;;;;;;;11.75;3.30;;;29.80;99.90;;;;;;4952159;28;20086;-60
2022/08/08 12:37:21;;;;;;;8.15;2.55;;;29.80;99.90;;;;;;4951539;28;20074;-58
2022/08/08 12:39:48;;;;;;;12.95;3.00;;;29.80;99.90;;;;;;4936688;28;20073;-58
2022/08/08 12:42:15;;;;;;;9.60;3.22;;;29.70;99.90;;;;;;4971001;28;20093;-57
2022/08/08 12:44:42;;;;;;;8.25;2.40;;;29.80;99.90;;;;;;4936525;28;20102;-60
2022/08/08 12:47:09;;;;;;;11.23;2.58;;;29.80;99.90;;;;;;4952136;28;20153;-56
2022/08/08 12:49:36;;;;;;;13.90;2.13;;;30.10;99.90;;;;;;4969556;28;20533;-61
2022/08/08 12:52:04;;;;;;;14.20;2.80;;;29.10;99.90;;;;;;4951531;28;20085;-55
2022/08/08 12:54:32;;;;;;;9.23;2.75;;;29.60;99.90;;;;;;4967796;28;20097;-58
2022/08/08 12:56:59;;;;;;;17.90;3.15;;;29.60;99.90;;;;;;4952070;28;20082;-57
2022/08/08 12:59:28;;;;;;;9.40;2.80;;;29.70;99.90;;;;;;4952329;28;20118;-56
2022/08/08 13:02:00;;;;;;;8.60;2.65;;;29.70;99.90;;;;;;4969116;28;20488;-60
2022/08/08 13:04:34;;;;;;;9.07;2.75;;;29.70;99.90;;;;;;4951995;28;20075;-61
2022/08/08 13:07:00;;;;;;;12.50;2.33;;;;;;;;;;4937193;28;20077;-57
2022/08/08 13:09:36;;;;;;;10.55;3.05;;;29.70;99.90;;;;;;4969455;28;20089;-56
2022/08/08 13:12:25;;;;;;;12.90;3.08;;;30.10;99.90;;;;;;4955371;28;20070;-56
2022/08/08 13:14:54;;;;;;;10.27;2.40;;;29.70;99.90;;;;;;4955244;28;20109;-55
2022/08/08 13:17:25;;;;;;;11.10;2.72;;;29.70;99.90;;;;;;4955029;28;20073;-55
2022/08/08 13:19:53;;;;;;;8.77;2.72;;;30.00;99.90;;;;;;4971712;28;20076;-57
2022/08/08 13:22:21;;;;;;;13.68;2.58;;;29.70;99.90;;;;;;4955263;28;20540;-60
2022/08/08 13:24:48;;;;;;;7.70;2.17;;;29.20;99.90;;;;;;4955636;28;20083;-59
2022/08/08 13:27:16;;;;;;;11.85;2.88;;;30.00;99.90;;;;;;4940199;28;20116;-56